Dame Des Tropiques — FQJE — position and weather

sailwx.info

Track history (hours):
 
Tides and Currents Weather Stations Pressure Air Temp Water Temp Dewpoint Dewpoint Depression Visibility Wind Speed Wind Dir Waves Ship Positions

Dame Des Tropiques

Last reported at 2015-Aug-29 20:33 UTC. Time now 2015-Aug-29 20:58 UTC.
Position N 43°22' E 005°18'.

Length 28 m.

Type: Sailing vessel. MMSI: 347002100.

Date/timePositionNaut miles runAvg speedWind from/ knotsBaromVisibWave heightAir tempDewpointWater temp
2015-Aug-29 20:33N 43°22' E 005°18'0 0.0
2015-Aug-29 19:24N 43°22' E 005°18'0 0.0
2015-Aug-29 18:30N 43°22' E 005°18'0 0.0
2015-Aug-29 17:24N 43°22' E 005°18'0 0.0
2015-Aug-29 16:30N 43°22' E 005°18'0 0.0
2015-Aug-29 15:30N 43°22' E 005°18'0 0.0
2015-Aug-29 14:30N 43°22' E 005°18'0 0.0
2015-Aug-29 13:24N 43°22' E 005°18'0 0.0
2015-Aug-29 12:12N 43°22' E 005°18'0 0.0
2015-Aug-29 11:30N 43°22' E 005°18'0 0.0
2015-Aug-29 10:24N 43°22' E 005°18'0 0.0
2015-Aug-29 09:18N 43°22' E 005°18'0 0.0
2015-Aug-29 07:30N 43°22' E 005°18'0 0.0
2015-Aug-29 06:24N 43°22' E 005°18'0 0.0
2015-Aug-29 05:30N 43°22' E 005°18'0 0.0
2015-Aug-29 04:12N 43°22' E 005°18'0 0.0
2015-Aug-29 03:30N 43°22' E 005°18'0 0.0
2015-Aug-29 02:33N 43°22' E 005°18'0 0.0
2015-Aug-29 01:24N 43°22' E 005°18'0 0.0
2015-Aug-29 00:24N 43°22' E 005°18'0 0.0
2015-Aug-28 23:30N 43°22' E 005°18'0 0.0
2015-Aug-28 22:30N 43°22' E 005°18'0 0.0
2015-Aug-28 21:30N 43°22' E 005°18'0 0.0
2015-Aug-28 20:24N 43°22' E 005°18'0 0.0
2015-Aug-28 19:33N 43°22' E 005°18'0 0.0
2015-Aug-28 18:24N 43°22' E 005°18'0 0.0
2015-Aug-28 17:30N 43°22' E 005°18'0 0.0
2015-Aug-28 16:30N 43°22' E 005°18'0 0.0
2015-Aug-28 15:24N 43°22' E 005°18'0 0.0
2015-Aug-28 14:30N 43°22' E 005°18'0 0.0
2015-Aug-28 13:18N 43°22' E 005°18'0 0.0
2015-Aug-28 12:30N 43°22' E 005°18'0 0.0
2015-Aug-28 11:30N 43°22' E 005°18'0 0.0
2015-Aug-28 10:24N 43°22' E 005°18'0 0.0
2015-Aug-28 09:30N 43°22' E 005°18'0 0.0
2015-Aug-28 08:30N 43°22' E 005°18'0 0.0
2015-Aug-28 07:18N 43°22' E 005°18'0 0.0
2015-Aug-28 06:15N 43°22' E 005°18'0 0.0
2015-Aug-28 05:30N 43°22' E 005°18'0 0.0
2015-Aug-28 04:27N 43°22' E 005°18'0 0.0
2015-Aug-28 03:30N 43°22' E 005°18'0 0.0
2015-Aug-28 02:24N 43°22' E 005°18'0 0.0
2015-Aug-28 01:24N 43°22' E 005°18'0 0.0
2015-Aug-28 00:24N 43°22' E 005°18'0 0.0
2015-Aug-27 23:30N 43°22' E 005°18'0 0.0
2015-Aug-27 22:30N 43°22' E 005°18'0 0.0
2015-Aug-27 21:24N 43°22' E 005°18'0 0.0
2015-Aug-27 20:18N 43°22' E 005°18'0 0.0
2015-Aug-27 19:24N 43°22' E 005°18'0 0.0
2015-Aug-27 18:30N 43°22' E 005°18'0 0.0
2015-Aug-27 17:27N 43°22' E 005°18'0 0.0
2015-Aug-27 16:18N 43°22' E 005°18'0 0.0
2015-Aug-27 15:24N 43°22' E 005°18'0 0.0
2015-Aug-27 14:33N 43°22' E 005°18'0 0.0
2015-Aug-27 13:33N 43°22' E 005°18'4 4.0
2015-Aug-27 12:33N 43°18' E 005°20'55 2.2
2015-Aug-26 11:12N 43°16' E 006°36'25 1.1
2015-Aug-25 12:33N 43°30' E 007°04'6 6.5
2015-Aug-25 11:33N 43°34' E 007°10'7 6.6
2015-Aug-25 10:33N 43°39' E 007°16'  
Track history (hours):
 
Tides and Currents Weather Stations Pressure Air Temp Water Temp Dewpoint Dewpoint Depression Visibility Wind Speed Wind Dir Waves Ship Positions

Dame Des Tropiques

Last reported at 2015-Aug-29 20:33 UTC. Time now 2015-Aug-29 20:58 UTC.
Position N 43°22' E 005°18'.

Length 28 m.

Type: Sailing vessel. MMSI: 347002100.

Date/timePositionNaut miles runAvg speedWind from/ knotsBaromVisibWave heightAir tempDewpointWater temp
2015-Aug-29 20:33N 43°22' E 005°18'0 0.0
2015-Aug-29 19:24N 43°22' E 005°18'0 0.0
2015-Aug-29 18:30N 43°22' E 005°18'0 0.0
2015-Aug-29 17:24N 43°22' E 005°18'0 0.0
2015-Aug-29 16:30N 43°22' E 005°18'0 0.0
2015-Aug-29 15:30N 43°22' E 005°18'0 0.0
2015-Aug-29 14:30N 43°22' E 005°18'0 0.0
2015-Aug-29 13:24N 43°22' E 005°18'0 0.0
2015-Aug-29 12:12N 43°22' E 005°18'0 0.0
2015-Aug-29 11:30N 43°22' E 005°18'0 0.0
2015-Aug-29 10:24N 43°22' E 005°18'0 0.0
2015-Aug-29 09:18N 43°22' E 005°18'0 0.0
2015-Aug-29 07:30N 43°22' E 005°18'0 0.0
2015-Aug-29 06:24N 43°22' E 005°18'0 0.0
2015-Aug-29 05:30N 43°22' E 005°18'0 0.0
2015-Aug-29 04:12N 43°22' E 005°18'0 0.0
2015-Aug-29 03:30N 43°22' E 005°18'0 0.0
2015-Aug-29 02:33N 43°22' E 005°18'0 0.0
2015-Aug-29 01:24N 43°22' E 005°18'0 0.0
2015-Aug-29 00:24N 43°22' E 005°18'0 0.0
2015-Aug-28 23:30N 43°22' E 005°18'0 0.0
2015-Aug-28 22:30N 43°22' E 005°18'0 0.0
2015-Aug-28 21:30N 43°22' E 005°18'0 0.0
2015-Aug-28 20:24N 43°22' E 005°18'0 0.0
2015-Aug-28 19:33N 43°22' E 005°18'0 0.0
2015-Aug-28 18:24N 43°22' E 005°18'0 0.0
2015-Aug-28 17:30N 43°22' E 005°18'0 0.0
2015-Aug-28 16:30N 43°22' E 005°18'0 0.0
2015-Aug-28 15:24N 43°22' E 005°18'0 0.0
2015-Aug-28 14:30N 43°22' E 005°18'0 0.0
2015-Aug-28 13:18N 43°22' E 005°18'0 0.0
2015-Aug-28 12:30N 43°22' E 005°18'0 0.0
2015-Aug-28 11:30N 43°22' E 005°18'0 0.0
2015-Aug-28 10:24N 43°22' E 005°18'0 0.0
2015-Aug-28 09:30N 43°22' E 005°18'0 0.0
2015-Aug-28 08:30N 43°22' E 005°18'0 0.0
2015-Aug-28 07:18N 43°22' E 005°18'0 0.0
2015-Aug-28 06:15N 43°22' E 005°18'0 0.0
2015-Aug-28 05:30N 43°22' E 005°18'0 0.0
2015-Aug-28 04:27N 43°22' E 005°18'0 0.0
2015-Aug-28 03:30N 43°22' E 005°18'0 0.0
2015-Aug-28 02:24N 43°22' E 005°18'0 0.0
2015-Aug-28 01:24N 43°22' E 005°18'0 0.0
2015-Aug-28 00:24N 43°22' E 005°18'0 0.0
2015-Aug-27 23:30N 43°22' E 005°18'0 0.0
2015-Aug-27 22:30N 43°22' E 005°18'0 0.0
2015-Aug-27 21:24N 43°22' E 005°18'0 0.0
2015-Aug-27 20:18N 43°22' E 005°18'0 0.0
2015-Aug-27 19:24N 43°22' E 005°18'0 0.0
2015-Aug-27 18:30N 43°22' E 005°18'0 0.0
2015-Aug-27 17:27N 43°22' E 005°18'0 0.0
2015-Aug-27 16:18N 43°22' E 005°18'0 0.0
2015-Aug-27 15:24N 43°22' E 005°18'0 0.0
2015-Aug-27 14:33N 43°22' E 005°18'0 0.0
2015-Aug-27 13:33N 43°22' E 005°18'4 4.0
2015-Aug-27 12:33N 43°18' E 005°20'55 2.2
2015-Aug-26 11:12N 43°16' E 006°36'25 1.1
2015-Aug-25 12:33N 43°30' E 007°04'6 6.5
2015-Aug-25 11:33N 43°34' E 007°10'7 6.6
2015-Aug-25 10:33N 43°39' E 007°16'  

Dump ship's entire track history